Time;durP1;ratioP1;P1;durP2;ratioP2;P2;SDS_P1;SDS_P2;PMS_P1;PMS_P2;Temp;Humidity;BMP_temperature;BMP_pressure;BME280_temperature;BME280_humidity;BME280_pressure;Samples;Min_cycle;Max_cycle;Signal;HPM_P1;HPM_P2
2022/04/20 00:00:40;;;;;;;1.65;1.55;;;11.60;97.80;;;;;;5022407;28;20042;-66
2022/04/20 00:03:06;;;;;;;0.13;0.13;;;11.60;97.50;;;;;;5010933;28;20104;-66
2022/04/20 00:05:33;;;;;;;0.20;0.20;;;11.50;97.90;;;;;;5017718;28;20046;-66
2022/04/20 00:08:00;;;;;;;0.20;0.20;;;11.40;97.40;;;;;;5013670;28;20050;-66
2022/04/20 00:10:26;;;;;;;0.10;0.10;;;11.40;97.70;;;;;;5012737;28;20053;-66
2022/04/20 00:12:52;;;;;;;0.10;0.10;;;11.40;97.40;;;;;;5011781;28;20081;-66
2022/04/20 00:15:17;;;;;;;1.33;0.75;;;11.30;96.90;;;;;;5009715;28;20520;-66
2022/04/20 00:17:43;;;;;;;0.00;0.00;;;11.20;97.10;;;;;;5010240;28;20046;-67
2022/04/20 00:20:09;;;;;;;0.28;0.28;;;11.40;96.50;;;;;;5013854;28;20050;-66
2022/04/20 00:22:34;;;;;;;0.20;0.20;;;11.40;96.40;;;;;;5013311;28;20038;-66
2022/04/20 00:25:00;;;;;;;0.10;0.10;;;11.20;96.50;;;;;;5011723;28;20618;-66
2022/04/20 00:27:26;;;;;;;0.00;0.00;;;11.40;96.30;;;;;;5013154;28;20049;-66
2022/04/20 00:29:51;;;;;;;0.10;0.10;;;11.30;95.50;;;;;;5013100;28;20042;-66
2022/04/20 00:32:17;;;;;;;0.10;0.10;;;11.40;95.40;;;;;;5010031;28;20548;-66
2022/04/20 00:34:42;;;;;;;0.00;0.00;;;11.30;95.20;;;;;;5011552;28;20487;-66
2022/04/20 00:37:08;;;;;;;0.10;0.10;;;11.30;95.10;;;;;;5024090;28;20056;-66
2022/04/20 00:39:36;;;;;;;0.80;0.50;;;11.20;94.70;;;;;;5038465;28;20053;-66
2022/04/20 00:42:01;;;;;;;0.00;0.00;;;11.20;95.10;;;;;;5010861;28;20125;-66
2022/04/20 00:44:29;;;;;;;2.40;0.70;;;11.20;95.10;;;;;;5012013;28;20124;-66
2022/04/20 00:46:56;;;;;;;0.93;0.93;;;11.30;94.20;;;;;;5010194;28;20538;-66
2022/04/20 00:49:23;;;;;;;0.30;0.30;;;11.20;94.30;;;;;;4992932;28;20042;-66
2022/04/20 00:51:57;;;;;;;0.00;0.00;;;11.20;94.60;;;;;;5008350;28;20128;-66
2022/04/20 00:54:23;;;;;;;0.30;0.30;;;11.30;94.10;;;;;;5009803;28;20128;-66
2022/04/20 00:56:49;;;;;;;0.10;0.10;;;11.20;94.60;;;;;;5012383;28;20054;-66
2022/04/20 00:59:21;;;;;;;0.10;0.10;;;11.10;93.90;;;;;;5007312;28;20046;-66
2022/04/20 01:01:47;;;;;;;0.47;0.47;;;11.10;94.10;;;;;;5010969;28;20042;-66
2022/04/20 01:04:12;;;;;;;0.20;0.20;;;11.20;93.80;;;;;;5017529;28;20114;-66
2022/04/20 01:06:38;;;;;;;0.00;0.00;;;11.10;93.80;;;;;;5011585;28;20037;-66
2022/04/20 01:09:04;;;;;;;0.00;0.00;;;11.10;93.90;;;;;;5011152;28;20041;-66
2022/04/20 01:11:30;;;;;;;0.00;0.00;;;11.10;94.20;;;;;;5012040;28;20459;-66
2022/04/20 01:13:56;;;;;;;0.43;0.43;;;11.20;93.90;;;;;;5009218;28;20041;-66
2022/04/20 01:16:21;;;;;;;0.00;0.00;;;11.20;93.50;;;;;;5012094;28;20046;-66
2022/04/20 01:18:49;;;;;;;4.30;0.52;;;11.10;93.50;;;;;;5010390;28;20378;-66
2022/04/20 01:21:16;;;;;;;0.00;0.00;;;11.00;93.40;;;;;;5010929;28;20046;-66
2022/04/20 01:23:42;;;;;;;0.43;0.43;;;11.00;93.80;;;;;;5010780;28;20046;-66
2022/04/20 01:26:08;;;;;;;0.10;0.10;;;11.00;94.10;;;;;;5012336;28;20053;-66
2022/04/20 01:28:36;;;;;;;0.38;0.38;;;11.00;94.40;;;;;;5007726;28;20042;-66
2022/04/20 01:31:02;;;;;;;0.28;0.28;;;10.80;93.50;;;;;;5011018;28;20041;-66
2022/04/20 01:33:27;;;;;;;0.10;0.10;;;11.00;93.30;;;;;;5008314;28;20045;-66
2022/04/20 01:35:53;;;;;;;0.10;0.10;;;10.90;93.60;;;;;;5014767;28;20610;-66
2022/04/20 01:38:18;;;;;;;0.10;0.10;;;10.80;95.00;;;;;;5010450;28;20030;-66
2022/04/20 01:40:44;;;;;;;0.10;0.10;;;10.80;93.70;;;;;;5008173;28;20188;-66
2022/04/20 01:43:09;;;;;;;0.00;0.00;;;10.80;93.80;;;;;;5010430;28;20187;-66
2022/04/20 01:45:35;;;;;;;0.30;0.30;;;10.60;93.90;;;;;;5010512;28;20057;-66
2022/04/20 01:48:00;;;;;;;0.10;0.10;;;10.60;94.00;;;;;;5017482;28;20052;-66
2022/04/20 01:50:26;;;;;;;0.00;0.00;;;10.60;93.90;;;;;;5011464;28;20056;-66
2022/04/20 01:52:51;;;;;;;0.08;0.08;;;10.50;94.30;;;;;;5007254;28;20642;-66
2022/04/20 01:55:17;;;;;;;0.20;0.20;;;10.50;94.00;;;;;;5010991;28;20067;-66
2022/04/20 01:57:43;;;;;;;0.10;0.10;;;10.60;95.00;;;;;;5009552;28;20397;-66
2022/04/20 02:00:10;;;;;;;0.20;0.20;;;10.50;93.90;;;;;;5011387;28;20034;-66
2022/04/20 02:02:37;;;;;;;0.52;0.52;;;10.60;94.40;;;;;;5007815;28;20091;-66
2022/04/20 02:05:05;;;;;;;0.10;0.10;;;10.40;94.00;;;;;;5004887;28;20042;-66
2022/04/20 02:07:31;;;;;;;0.50;0.50;;;10.50;94.80;;;;;;4999194;28;20034;-66
2022/04/20 02:09:57;;;;;;;0.55;0.35;;;10.40;94.70;;;;;;5009736;28;20084;-66
2022/04/20 02:12:23;;;;;;;0.00;0.00;;;10.20;94.00;;;;;;5008857;28;20414;-66
2022/04/20 02:14:49;;;;;;;0.20;0.20;;;10.30;94.40;;;;;;5011867;28;20064;-66
2022/04/20 02:17:14;;;;;;;0.13;0.13;;;10.30;95.10;;;;;;5009897;28;20478;-66
2022/04/20 02:19:40;;;;;;;0.82;0.82;;;10.20;94.40;;;;;;5007990;28;20529;-66
2022/04/20 02:22:05;;;;;;;0.80;0.80;;;10.30;94.40;;;;;;5011481;28;20037;-66
2022/04/20 02:24:31;;;;;;;0.55;0.52;;;10.20;95.10;;;;;;5009334;28;20057;-66
2022/04/20 02:26:57;;;;;;;1.95;0.75;;;10.20;96.40;;;;;;5010285;28;20033;-66
2022/04/20 02:29:22;;;;;;;1.13;0.68;;;10.20;95.00;;;;;;5009186;28;20030;-66
2022/04/20 02:31:48;;;;;;;0.10;0.10;;;10.20;94.60;;;;;;5008132;28;20108;-66
2022/04/20 02:34:14;;;;;;;0.20;0.20;;;10.00;94.90;;;;;;4999390;28;20046;-66
2022/04/20 02:36:39;;;;;;;0.10;0.10;;;10.10;95.10;;;;;;5010625;28;20046;-66
2022/04/20 02:39:06;;;;;;;0.10;0.10;;;10.10;95.40;;;;;;5006423;28;20042;-66
2022/04/20 02:41:37;;;;;;;0.03;0.03;;;10.00;95.10;;;;;;5009554;28;20500;-66
2022/04/20 02:44:04;;;;;;;0.00;0.00;;;10.00;95.40;;;;;;5010390;28;20046;-66
2022/04/20 02:46:30;;;;;;;1.02;0.82;;;10.00;95.00;;;;;;5008195;28;20038;-66
2022/04/20 02:48:55;;;;;;;0.10;0.10;;;9.90;95.70;;;;;;5008678;28;20049;-66
2022/04/20 02:51:21;;;;;;;0.15;0.15;;;9.90;95.40;;;;;;5009964;28;20081;-66
2022/04/20 02:53:46;;;;;;;0.75;0.32;;;9.90;95.50;;;;;;5005591;28;20050;-66
2022/04/20 02:56:12;;;;;;;0.30;0.30;;;9.80;95.20;;;;;;5010890;28;20441;-66
2022/04/20 02:58:38;;;;;;;0.05;0.05;;;9.90;96.50;;;;;;5010035;28;20048;-66
2022/04/20 03:01:03;;;;;;;0.05;0.05;;;9.70;95.70;;;;;;5009647;28;20088;-66
2022/04/20 03:03:29;;;;;;;0.00;0.00;;;9.80;96.30;;;;;;5010536;28;20042;-66
2022/04/20 03:05:55;;;;;;;0.30;0.30;;;9.80;95.80;;;;;;5007857;28;20045;-66
2022/04/20 03:08:21;;;;;;;0.00;0.00;;;9.70;95.80;;;;;;5008141;28;20044;-66
2022/04/20 03:10:46;;;;;;;0.20;0.20;;;9.70;96.10;;;;;;5010109;28;20056;-66
2022/04/20 03:13:12;;;;;;;0.10;0.10;;;9.70;96.30;;;;;;5007432;28;20066;-66
2022/04/20 03:15:37;;;;;;;0.10;0.10;;;9.60;96.20;;;;;;5008587;28;20053;-66
2022/04/20 03:18:03;;;;;;;0.10;0.10;;;9.70;96.50;;;;;;5010526;28;20069;-66
2022/04/20 03:20:29;;;;;;;0.10;0.10;;;9.70;96.60;;;;;;5007431;28;20046;-66
2022/04/20 03:22:54;;;;;;;0.10;0.10;;;9.80;96.40;;;;;;5010156;28;20053;-66
2022/04/20 03:25:20;;;;;;;0.00;0.00;;;9.70;96.70;;;;;;5010431;28;20049;-66
2022/04/20 03:27:45;;;;;;;0.40;0.40;;;9.60;96.40;;;;;;5005258;28;20449;-66
2022/04/20 03:30:12;;;;;;;0.20;0.20;;;9.50;96.50;;;;;;5010664;28;20136;-66
2022/04/20 03:32:39;;;;;;;0.65;0.52;;;9.60;97.70;;;;;;5012551;28;20061;-66
2022/04/20 03:35:05;;;;;;;0.10;0.10;;;9.50;97.00;;;;;;5011577;28;20052;-66
2022/04/20 03:37:31;;;;;;;0.17;0.17;;;9.50;96.80;;;;;;5013147;28;20033;-66
2022/04/20 03:39:57;;;;;;;0.20;0.20;;;9.50;97.70;;;;;;5009670;28;20080;-66
2022/04/20 03:42:22;;;;;;;0.00;0.00;;;9.50;97.70;;;;;;5009766;28;20421;-66
2022/04/20 03:44:48;;;;;;;0.20;0.20;;;9.40;97.30;;;;;;5014237;28;20056;-66
2022/04/20 03:47:14;;;;;;;0.30;0.25;;;9.40;97.40;;;;;;5010331;28;20038;-66
2022/04/20 03:49:39;;;;;;;0.10;0.10;;;9.30;97.80;;;;;;5012126;28;20402;-66
2022/04/20 03:52:07;;;;;;;0.20;0.20;;;9.30;97.60;;;;;;5006114;28;20054;-66
2022/04/20 03:54:32;;;;;;;0.20;0.20;;;9.20;97.70;;;;;;4993235;28;20108;-66
2022/04/20 03:57:03;;;;;;;0.88;0.88;;;9.30;98.00;;;;;;5005180;28;20979;-66
2022/04/20 03:59:33;;;;;;;0.10;0.10;;;9.20;97.90;;;;;;5013926;28;20458;-66
2022/04/20 04:02:02;;;;;;;0.10;0.10;;;9.10;98.00;;;;;;5009495;28;20104;-66
2022/04/20 04:04:27;;;;;;;0.10;0.10;;;9.20;98.40;;;;;;5020279;28;20520;-66
2022/04/20 04:06:53;;;;;;;0.00;0.00;;;9.10;98.40;;;;;;5033258;28;20045;-66
2022/04/20 04:09:19;;;;;;;0.17;0.17;;;9.20;98.60;;;;;;5012921;28;20464;-66
2022/04/20 04:11:45;;;;;;;0.45;0.30;;;9.10;98.50;;;;;;5011808;28;20077;-66
2022/04/20 04:14:10;;;;;;;0.65;0.65;;;9.10;98.50;;;;;;5012894;28;20453;-66
2022/04/20 04:16:39;;;;;;;0.03;0.03;;;9.10;98.80;;;;;;5009818;28;20108;-66
2022/04/20 04:19:06;;;;;;;0.20;0.20;;;9.00;99.30;;;;;;5012748;28;20489;-66
2022/04/20 04:21:35;;;;;;;0.28;0.28;;;9.00;99.00;;;;;;5000504;28;20078;-66
2022/04/20 04:24:01;;;;;;;0.22;0.22;;;9.00;99.00;;;;;;4993198;28;20371;-66
2022/04/20 04:26:28;;;;;;;0.00;0.00;;;8.90;99.20;;;;;;5001404;28;20041;-66
2022/04/20 04:28:53;;;;;;;0.17;0.17;;;9.00;99.50;;;;;;5013432;28;20042;-66
2022/04/20 04:31:19;;;;;;;0.15;0.15;;;9.00;99.70;;;;;;5010561;28;20053;-66
2022/04/20 04:33:45;;;;;;;0.10;0.10;;;9.00;99.30;;;;;;5009871;28;20045;-66
2022/04/20 04:36:10;;;;;;;0.63;0.20;;;8.90;99.50;;;;;;5019691;28;20050;-66
2022/04/20 04:38:36;;;;;;;0.50;0.50;;;8.90;99.90;;;;;;5012675;28;20050;-66
2022/04/20 04:41:01;;;;;;;0.10;0.10;;;8.90;99.90;;;;;;5013643;28;20104;-66
2022/04/20 04:43:27;;;;;;;0.43;0.43;;;8.90;99.90;;;;;;5010107;28;20485;-66
2022/04/20 04:48:36;;;;;;;0.22;0.22;;;8.90;99.90;;;;;;5020827;28;20060;-66
2022/04/20 04:51:06;;;;;;;0.43;0.43;;;8.90;99.90;;;;;;5010583;28;20125;-66
2022/04/20 04:53:32;;;;;;;0.22;0.22;;;8.90;99.90;;;;;;5012720;28;20100;-66
2022/04/20 04:55:58;;;;;;;0.55;0.55;;;8.90;99.90;;;;;;5011196;28;20523;-66
2022/04/20 04:58:24;;;;;;;3.50;1.25;;;9.00;99.90;;;;;;5009846;28;20065;-66
2022/04/20 05:00:49;;;;;;;0.10;0.10;;;8.90;99.90;;;;;;5012165;28;20053;-66
2022/04/20 05:03:16;;;;;;;0.15;0.15;;;8.80;99.90;;;;;;5010083;28;20513;-66
2022/04/20 05:05:44;;;;;;;0.00;0.00;;;8.80;99.90;;;;;;5010194;28;20046;-66
2022/04/20 05:08:10;;;;;;;0.28;0.28;;;8.90;99.90;;;;;;5013137;28;20049;-66
2022/04/20 05:10:39;;;;;;;0.10;0.10;;;9.00;99.90;;;;;;5011371;28;20625;-66
2022/04/20 05:13:05;;;;;;;0.10;0.10;;;8.90;99.90;;;;;;5001192;28;20478;-66
2022/04/20 05:15:31;;;;;;;0.20;0.20;;;9.00;99.90;;;;;;5012612;28;20049;-66
2022/04/20 05:17:56;;;;;;;0.77;0.57;;;8.90;99.90;;;;;;5010225;28;20046;-66
2022/04/20 05:20:22;;;;;;;0.68;0.68;;;8.90;99.90;;;;;;5027052;28;20046;-66
2022/04/20 05:22:49;;;;;;;0.55;0.55;;;8.90;99.90;;;;;;5009793;28;20370;-66
2022/04/20 05:25:14;;;;;;;0.00;0.00;;;9.00;99.90;;;;;;5011186;28;20042;-66
2022/04/20 05:27:40;;;;;;;0.50;0.30;;;9.10;99.90;;;;;;5008732;28;20132;-66
2022/04/20 05:30:08;;;;;;;0.25;0.25;;;9.10;99.90;;;;;;5014396;28;20042;-66
2022/04/20 05:32:34;;;;;;;1.00;1.00;;;9.20;99.90;;;;;;5008973;28;20636;-66
2022/04/20 05:35:01;;;;;;;0.35;0.35;;;9.10;99.90;;;;;;5002005;28;20125;-66
2022/04/20 05:42:56;;;;;;;0.00;0.00;;;9.30;99.90;;;;;;5010979;28;20104;-66
2022/04/20 05:45:22;;;;;;;0.10;0.10;;;9.20;99.90;;;;;;4995221;28;20128;-66
2022/04/20 05:47:48;;;;;;;0.10;0.10;;;9.30;99.90;;;;;;4997261;28;20093;-66
2022/04/20 05:50:13;;;;;;;0.10;0.10;;;9.30;99.90;;;;;;5008809;28;20056;-66
2022/04/20 05:52:39;;;;;;;4.22;2.22;;;9.40;99.90;;;;;;5005444;28;20156;-67
2022/04/20 05:55:05;;;;;;;0.10;0.10;;;9.40;99.90;;;;;;5010040;28;20742;-66
2022/04/20 05:57:32;;;;;;;0.63;0.63;;;9.50;99.90;;;;;;5011594;28;20414;-66
2022/04/20 05:59:57;;;;;;;0.22;0.22;;;9.40;99.90;;;;;;5010343;28;20041;-66
2022/04/20 06:02:23;;;;;;;0.40;0.40;;;9.50;99.90;;;;;;5001696;28;20030;-66
2022/04/20 06:04:48;;;;;;;0.20;0.20;;;9.60;99.80;;;;;;5008625;28;20041;-67
2022/04/20 06:07:14;;;;;;;0.00;0.00;;;9.60;99.50;;;;;;5008762;28;20045;-67
2022/04/20 06:09:40;;;;;;;0.52;0.52;;;9.80;99.90;;;;;;5004941;28;20103;-67
2022/04/20 06:12:07;;;;;;;0.20;0.20;;;10.00;99.90;;;;;;5008635;28;20474;-67
2022/04/20 06:14:33;;;;;;;0.05;0.05;;;10.00;99.10;;;;;;5010389;28;20042;-67
2022/04/20 06:16:59;;;;;;;0.10;0.10;;;10.10;98.80;;;;;;5010774;28;20153;-67
2022/04/20 06:19:24;;;;;;;0.10;0.10;;;10.10;98.90;;;;;;5006742;28;20386;-67
2022/04/20 06:21:50;;;;;;;0.00;0.00;;;10.00;98.80;;;;;;5005553;28;20048;-66
2022/04/20 06:24:16;;;;;;;0.10;0.10;;;10.20;98.60;;;;;;5010972;28;20466;-67
2022/04/20 06:26:41;;;;;;;0.10;0.10;;;10.30;99.00;;;;;;5007971;28;20413;-67
2022/04/20 06:29:07;;;;;;;0.00;0.00;;;10.40;98.50;;;;;;5009652;28;20081;-67
2022/04/20 06:31:33;;;;;;;0.47;0.47;;;10.40;98.00;;;;;;5015185;28;20117;-67
2022/04/20 06:33:59;;;;;;;0.00;0.00;;;10.50;97.70;;;;;;5003111;28;20046;-67
2022/04/20 06:36:26;;;;;;;0.10;0.10;;;10.50;97.80;;;;;;5003879;28;20405;-67
2022/04/20 06:38:51;;;;;;;0.20;0.20;;;10.60;97.50;;;;;;5009571;28;20405;-67
2022/04/20 06:41:17;;;;;;;0.00;0.00;;;10.60;98.20;;;;;;5010331;28;20049;-67
2022/04/20 06:43:43;;;;;;;0.00;0.00;;;10.70;97.80;;;;;;5009682;28;20499;-67
2022/04/20 06:46:09;;;;;;;0.10;0.10;;;10.70;97.80;;;;;;5009247;28;20092;-67
2022/04/20 06:48:34;;;;;;;0.10;0.10;;;10.80;97.20;;;;;;5009550;28;20104;-67
2022/04/20 06:51:03;;;;;;;0.10;0.10;;;10.90;97.10;;;;;;5008614;28;20049;-67
2022/04/20 06:58:57;;;;;;;0.00;0.00;;;11.10;96.90;;;;;;5009162;28;20524;-67
2022/04/20 07:01:23;;;;;;;0.10;0.10;;;11.00;96.50;;;;;;5012819;28;20074;-67
2022/04/20 07:03:49;;;;;;;0.57;0.57;;;11.00;96.40;;;;;;5030123;28;20073;-67
2022/04/20 07:06:14;;;;;;;0.10;0.10;;;11.10;95.70;;;;;;5012110;28;20092;-67
2022/04/20 07:08:40;;;;;;;0.10;0.10;;;11.30;96.30;;;;;;4999912;28;20061;-67
2022/04/20 07:11:06;;;;;;;0.10;0.10;;;11.30;94.90;;;;;;5009638;28;20054;-67
2022/04/20 07:13:32;;;;;;;0.08;0.08;;;11.30;95.20;;;;;;5010091;28;20050;-67
2022/04/20 07:15:57;;;;;;;0.20;0.20;;;11.40;94.70;;;;;;5006771;28;20133;-67
2022/04/20 07:18:23;;;;;;;0.30;0.28;;;11.60;94.50;;;;;;5001312;28;20049;-68
2022/04/20 07:20:50;;;;;;;0.90;0.90;;;11.60;95.50;;;;;;5004744;28;20038;-66
2022/04/20 07:23:15;;;;;;;0.10;0.10;;;11.70;94.60;;;;;;4998917;28;20138;-67
2022/04/20 07:25:41;;;;;;;0.20;0.20;;;11.80;94.20;;;;;;5003439;28;20124;-67
2022/04/20 07:28:07;;;;;;;0.17;0.13;;;11.80;94.00;;;;;;5004021;28;20049;-67
2022/04/20 07:30:36;;;;;;;0.10;0.10;;;11.80;93.90;;;;;;5008794;28;20096;-67
2022/04/20 07:33:03;;;;;;;1.38;1.02;;;11.90;93.60;;;;;;5008460;28;20044;-67
2022/04/20 07:35:29;;;;;;;0.03;0.03;;;12.10;94.90;;;;;;5009762;28;20523;-67
2022/04/20 07:37:55;;;;;;;0.10;0.10;;;12.20;93.40;;;;;;5008168;28;20046;-67
2022/04/20 07:40:21;;;;;;;0.10;0.10;;;12.10;93.50;;;;;;5009298;28;20069;-67
2022/04/20 07:42:53;;;;;;;0.08;0.08;;;12.20;93.20;;;;;;5009196;28;20413;-67
2022/04/20 07:45:18;;;;;;;0.10;0.10;;;12.20;93.60;;;;;;5009445;28;20145;-67
2022/04/20 07:47:44;;;;;;;0.10;0.10;;;12.30;93.90;;;;;;5009258;28;20177;-67
2022/04/20 07:50:18;;;;;;;0.00;0.00;;;12.40;94.30;;;;;;5008374;28;20061;-67
2022/04/20 07:53:06;;;;;;;0.10;0.10;;;12.40;93.10;;;;;;5008632;28;20548;-67
2022/04/20 07:55:34;;;;;;;0.10;0.10;;;12.50;94.10;;;;;;5008919;28;20054;-67
2022/04/20 07:58:01;;;;;;;1.77;1.63;;;12.60;92.00;;;;;;5007764;28;20054;-67
2022/04/20 08:00:28;;;;;;;0.10;0.10;;;12.70;90.80;;;;;;5014325;28;20504;-67
2022/04/20 08:03:14;;;;;;;4.03;2.05;;;12.70;92.00;;;;;;5009745;28;20095;-68
2022/04/20 08:05:41;;;;;;;0.32;0.32;;;12.80;90.80;;;;;;5008703;28;20085;-67
2022/04/20 08:08:08;;;;;;;0.00;0.00;;;12.80;89.20;;;;;;5008523;28;20198;-67
2022/04/20 08:10:34;;;;;;;0.10;0.10;;;12.90;90.60;;;;;;5008465;28;20050;-67
2022/04/20 08:12:59;;;;;;;0.10;0.10;;;12.90;91.80;;;;;;5008864;28;20052;-67
2022/04/20 08:15:25;;;;;;;0.10;0.10;;;13.10;91.10;;;;;;5006908;28;20056;-67
2022/04/20 08:17:50;;;;;;;0.43;0.40;;;13.20;91.00;;;;;;5010715;28;20053;-67
2022/04/20 08:20:16;;;;;;;0.20;0.20;;;13.20;88.90;;;;;;5010522;28;20077;-67
2022/04/20 08:22:43;;;;;;;0.10;0.10;;;13.30;89.00;;;;;;5009182;28;20053;-67
2022/04/20 08:25:11;;;;;;;0.32;0.32;;;13.30;87.20;;;;;;5011606;28;20046;-67
2022/04/20 08:27:37;;;;;;;0.00;0.00;;;13.30;87.70;;;;;;5012211;28;20086;-67
2022/04/20 08:30:05;;;;;;;0.10;0.10;;;13.30;88.30;;;;;;5023831;28;20529;-67
2022/04/20 08:32:31;;;;;;;0.10;0.10;;;13.40;86.60;;;;;;5024543;28;20497;-67
2022/04/20 08:34:56;;;;;;;0.10;0.10;;;13.50;90.10;;;;;;5012980;28;20041;-67
2022/04/20 08:37:22;;;;;;;0.15;0.15;;;13.90;88.20;;;;;;5044126;28;20099;-67
2022/04/20 08:39:48;;;;;;;0.10;0.10;;;14.70;88.60;;;;;;5011612;28;20410;-68
2022/04/20 08:42:17;;;;;;;0.13;0.13;;;15.50;88.20;;;;;;5010809;28;20490;-68
2022/04/20 08:44:44;;;;;;;0.10;0.10;;;16.20;85.40;;;;;;5011939;28;20092;-69
2022/04/20 08:47:15;;;;;;;0.10;0.10;;;16.70;84.60;;;;;;5010696;28;20053;-68
2022/04/20 08:49:44;;;;;;;0.10;0.10;;;17.20;83.20;;;;;;5042446;28;20045;-68
2022/04/20 08:54:57;;;;;;;0.05;0.05;;;17.80;78.60;;;;;;5012591;28;20092;-68
2022/04/20 08:57:26;;;;;;;0.03;0.03;;;17.80;75.60;;;;;;5011246;28;20069;-68
2022/04/20 08:59:52;;;;;;;0.75;0.55;;;18.00;74.80;;;;;;5013157;28;20386;-68
2022/04/20 09:02:20;;;;;;;0.10;0.10;;;18.10;76.70;;;;;;5011657;28;20041;-68
2022/04/20 09:04:46;;;;;;;2.95;1.55;;;18.10;74.70;;;;;;5011037;28;20421;-68
2022/04/20 09:07:15;;;;;;;0.15;0.15;;;18.40;77.50;;;;;;5005381;28;20096;-68
2022/04/20 09:09:41;;;;;;;0.00;0.00;;;18.40;76.10;;;;;;5010021;28;20092;-69
2022/04/20 09:12:14;;;;;;;0.08;0.08;;;18.90;74.30;;;;;;5010692;28;20058;-68
2022/04/20 09:14:43;;;;;;;0.10;0.10;;;18.90;74.00;;;;;;5010909;28;20058;-69
2022/04/20 09:17:13;;;;;;;0.47;0.45;;;19.10;71.70;;;;;;5012378;28;20497;-68
2022/04/20 09:19:40;;;;;;;0.10;0.10;;;19.10;71.50;;;;;;5008763;28;20060;-68
2022/04/20 09:22:25;;;;;;;0.10;0.10;;;18.80;70.90;;;;;;5011032;28;20041;-69
2022/04/20 09:25:04;;;;;;;0.10;0.10;;;19.00;71.90;;;;;;5005576;28;20111;-68
2022/04/20 09:27:32;;;;;;;0.10;0.10;;;19.40;72.80;;;;;;5011812;28;20049;-68
2022/04/20 09:29:58;;;;;;;0.55;0.38;;;19.30;72.10;;;;;;5024235;28;20057;-68
2022/04/20 09:32:37;;;;;;;0.20;0.20;;;19.50;72.10;;;;;;5026408;28;20051;-68
2022/04/20 09:35:08;;;;;;;0.13;0.13;;;20.00;70.30;;;;;;5011950;28;20057;-68
2022/04/20 09:37:36;;;;;;;0.00;0.00;;;19.90;69.50;;;;;;5007266;28;20148;-68
2022/04/20 09:40:05;;;;;;;0.00;0.00;;;19.90;69.90;;;;;;5011215;28;20065;-68
2022/04/20 09:42:33;;;;;;;0.52;0.40;;;19.80;70.80;;;;;;5010091;28;20096;-68
2022/04/20 09:45:04;;;;;;;0.22;0.22;;;19.70;68.60;;;;;;5004080;28;20057;-68
2022/04/20 09:50:26;;;;;;;0.00;0.00;;;20.20;68.10;;;;;;5010276;28;20193;-68
2022/04/20 09:52:59;;;;;;;0.00;0.00;;;19.80;67.80;;;;;;5007645;28;20046;-69
2022/04/20 09:55:36;;;;;;;0.00;0.00;;;20.10;69.30;;;;;;5011145;28;20054;-68
2022/04/20 09:58:09;;;;;;;0.00;0.00;;;20.20;69.00;;;;;;5011589;28;20054;-68
2022/04/20 10:00:41;;;;;;;0.00;0.00;;;20.20;66.00;;;;;;5008877;28;20050;-68
2022/04/20 10:03:08;;;;;;;0.00;0.00;;;20.30;70.00;;;;;;5010881;28;20052;-68
2022/04/20 10:05:34;;;;;;;1.30;1.23;;;20.20;66.20;;;;;;5011547;28;20116;-68
2022/04/20 10:08:01;;;;;;;0.00;0.00;;;20.00;65.90;;;;;;5010997;28;20112;-68
2022/04/20 10:10:29;;;;;;;0.30;0.25;;;20.00;65.00;;;;;;5008837;28;20119;-68
2022/04/20 10:12:56;;;;;;;0.00;0.00;;;20.10;66.30;;;;;;5009701;28;20056;-68
2022/04/20 10:18:13;;;;;;;0.20;0.20;;;20.20;66.70;;;;;;5011685;28;20149;-68
2022/04/20 10:20:42;;;;;;;0.00;0.00;;;20.10;68.80;;;;;;5007751;28;20088;-69
2022/04/20 10:23:08;;;;;;;1.48;0.93;;;20.50;69.00;;;;;;5010817;28;20042;-68
2022/04/20 10:25:33;;;;;;;0.05;0.05;;;20.10;65.50;;;;;;5008608;28;20057;-68
2022/04/20 10:28:03;;;;;;;0.10;0.10;;;19.90;64.40;;;;;;5006252;28;20038;-68
2022/04/20 10:31:05;;;;;;;0.00;0.00;;;19.80;68.20;;;;;;4999400;28;20049;-68
2022/04/20 10:33:33;;;;;;;0.00;0.00;;;19.80;67.40;;;;;;4979254;28;20051;-68
2022/04/20 10:36:02;;;;;;;0.03;0.03;;;19.70;63.90;;;;;;4991239;28;20489;-68
2022/04/20 10:38:30;;;;;;;0.60;0.40;;;19.80;67.00;;;;;;4995705;28;20057;-68
2022/04/20 10:41:06;;;;;;;0.28;0.28;;;20.10;66.10;;;;;;5008587;28;20054;-68
2022/04/20 10:43:34;;;;;;;0.00;0.00;;;19.90;62.60;;;;;;5010192;28;20081;-68
2022/04/20 10:46:14;;;;;;;0.20;0.20;;;19.80;66.50;;;;;;5010091;28;20042;-68
2022/04/20 10:49:00;;;;;;;0.65;0.47;;;19.90;65.30;;;;;;5009291;28;20100;-68
2022/04/20 10:51:41;;;;;;;0.00;0.00;;;20.00;64.60;;;;;;5009031;28;20056;-68
2022/04/20 10:54:26;;;;;;;0.00;0.00;;;19.70;64.00;;;;;;5008300;28;21143;-68
2022/04/20 10:57:01;;;;;;;0.00;0.00;;;20.10;63.70;;;;;;5009758;28;20056;-68
2022/04/20 10:59:30;;;;;;;0.00;0.00;;;19.80;63.90;;;;;;5008626;28;20446;-69
2022/04/20 11:01:59;;;;;;;0.00;0.00;;;20.00;64.10;;;;;;5008985;28;20046;-68
2022/04/20 11:04:46;;;;;;;0.00;0.00;;;19.80;62.40;;;;;;5009207;28;20080;-68
2022/04/20 11:07:17;;;;;;;0.00;0.00;;;20.10;64.30;;;;;;5009320;28;20046;-69
2022/04/20 11:09:45;;;;;;;0.00;0.00;;;20.10;67.20;;;;;;5009936;28;20084;-69
2022/04/20 11:21:07;;;;;;;0.38;0.38;;;20.30;64.70;;;;;;5009250;28;20116;-68
2022/04/20 11:23:52;;;;;;;0.00;0.00;;;20.40;61.70;;;;;;5009109;28;20085;-68
2022/04/20 11:26:33;;;;;;;0.50;0.50;;;20.60;60.10;;;;;;5007052;28;20128;-68
2022/04/20 11:29:06;;;;;;;0.00;0.00;;;20.70;64.30;;;;;;5002803;28;20046;-69
2022/04/20 11:31:36;;;;;;;;;;;21.00;62.30;;;;;;5007357;28;20046;-69
2022/04/20 11:34:02;;;;;;;0.17;0.17;;;20.90;59.30;;;;;;5007529;28;19929;-68
2022/04/20 11:36:27;;;;;;;0.10;0.10;;;21.10;61.90;;;;;;5010038;28;20113;-69
2022/04/20 11:38:53;;;;;;;0.00;0.00;;;21.20;60.00;;;;;;5008654;28;20206;-69
2022/04/20 11:41:19;;;;;;;0.00;0.00;;;21.50;63.10;;;;;;5008894;28;20184;-69
2022/04/20 11:43:47;;;;;;;0.30;0.30;;;21.30;62.60;;;;;;5010161;28;20058;-69
2022/04/20 11:46:14;;;;;;;0.47;0.47;;;21.50;61.00;;;;;;5008489;28;20164;-69
2022/04/20 11:48:55;;;;;;;0.00;0.00;;;21.80;61.80;;;;;;5004068;28;20069;-70
2022/04/20 11:51:23;;;;;;;0.00;0.00;;;21.70;62.90;;;;;;5009754;28;20489;-70
2022/04/20 11:53:49;;;;;;;0.00;0.00;;;21.70;59.50;;;;;;5010438;28;20087;-70
2022/04/20 11:56:15;;;;;;;0.10;0.10;;;21.60;60.60;;;;;;5014163;28;20050;-69
2022/04/20 11:58:46;;;;;;;3.53;0.28;;;21.40;62.70;;;;;;5012186;28;20045;-69
2022/04/20 12:01:12;;;;;;;0.00;0.00;;;21.50;61.10;;;;;;5011301;28;20120;-69
2022/04/20 12:03:41;;;;;;;0.00;0.00;;;21.50;64.20;;;;;;5008884;28;20121;-70
2022/04/20 12:06:09;;;;;;;0.00;0.00;;;21.70;61.80;;;;;;5012854;28;20046;-68
2022/04/20 12:08:38;;;;;;;0.10;0.10;;;22.00;63.80;;;;;;5043563;28;20048;-69
2022/04/20 12:11:07;;;;;;;0.00;0.00;;;22.10;64.30;;;;;;5013981;28;20052;-69
2022/04/20 12:13:33;;;;;;;0.00;0.00;;;22.50;63.40;;;;;;5011894;28;20132;-69
2022/04/20 12:16:01;;;;;;;0.22;0.22;;;22.60;61.80;;;;;;5012456;28;20509;-70
2022/04/20 12:18:28;;;;;;;0.13;0.13;;;22.20;61.10;;;;;;5008334;28;20065;-69
2022/04/20 12:20:54;;;;;;;0.50;0.15;;;22.20;62.90;;;;;;5010465;28;20089;-69
2022/04/20 12:23:19;;;;;;;0.00;0.00;;;21.90;63.40;;;;;;5011093;28;20524;-69
2022/04/20 12:25:55;;;;;;;0.00;0.00;;;22.50;65.30;;;;;;5004047;28;20053;-69
2022/04/20 12:28:35;;;;;;;0.10;0.10;;;22.60;65.30;;;;;;5011615;28;20030;-69
2022/04/20 12:31:02;;;;;;;0.03;0.03;;;22.40;63.30;;;;;;5011967;28;20056;-70
2022/04/20 12:33:29;;;;;;;0.00;0.00;;;22.80;65.80;;;;;;5012792;28;20046;-69
2022/04/20 12:36:06;;;;;;;0.00;0.00;;;23.10;64.40;;;;;;5012289;28;20045;-69
2022/04/20 12:39:01;;;;;;;0.00;0.00;;;23.00;62.80;;;;;;5011704;28;20118;-69
2022/04/20 12:41:45;;;;;;;1.17;0.10;;;22.90;63.00;;;;;;5004218;28;20050;-70
2022/04/20 12:44:47;;;;;;;0.20;0.20;;;22.90;64.90;;;;;;5001794;28;20065;-69
2022/04/20 12:47:14;;;;;;;0.00;0.00;;;23.00;69.20;;;;;;5005391;28;20042;-70
2022/04/20 12:49:40;;;;;;;0.55;0.43;;;23.00;70.00;;;;;;5002582;28;20851;-70
2022/04/20 12:52:13;;;;;;;0.00;0.00;;;23.10;69.90;;;;;;5003353;28;20054;-70
2022/04/20 12:54:40;;;;;;;0.00;0.00;;;23.20;69.40;;;;;;5006204;28;20116;-70
2022/04/20 13:03:02;;;;;;;0.32;0.32;;;23.20;67.20;;;;;;5011753;28;20057;-71
2022/04/20 13:05:29;;;;;;;0.52;0.52;;;23.40;68.30;;;;;;5010356;28;20057;-70
2022/04/20 13:07:55;;;;;;;0.22;0.10;;;23.40;69.60;;;;;;5012594;28;20046;-70
2022/04/20 13:10:22;;;;;;;1.45;0.95;;;23.10;69.90;;;;;;5009483;28;20042;-70
2022/04/20 13:12:54;;;;;;;0.08;0.08;;;23.10;69.10;;;;;;5012118;28;20049;-71
2022/04/20 13:15:22;;;;;;;0.00;0.00;;;23.20;67.80;;;;;;5005050;28;20038;-71
2022/04/20 13:17:48;;;;;;;0.30;0.30;;;23.10;67.90;;;;;;5010493;28;20052;-71
2022/04/20 13:20:16;;;;;;;0.20;0.20;;;23.00;70.40;;;;;;5007513;28;21007;-71
2022/04/20 13:22:41;;;;;;;0.13;0.13;;;23.00;70.60;;;;;;5006173;28;20046;-70
2022/04/20 13:27:55;;;;;;;0.98;0.20;;;23.10;68.60;;;;;;5010142;28;21781;-70
2022/04/20 13:30:24;;;;;;;0.25;0.25;;;23.10;69.10;;;;;;5007247;28;20042;-70
2022/04/20 13:32:51;;;;;;;1.48;1.38;;;22.90;70.00;;;;;;5008930;28;20049;-70